Time;durP1;ratioP1;P1;durP2;ratioP2;P2;SDS_P1;SDS_P2;PMS_P1;PMS_P2;Temp;Humidity;BMP_temperature;BMP_pressure;BME280_temperature;BME280_humidity;BME280_pressure;Samples;Min_cycle;Max_cycle;Signal;HPM_P1;HPM_P2
2022/01/31 00:00:13;;;;;;;19.30;5.10;;;6.90;99.90;;;;;;7348243;19;110143;-92
2022/01/31 00:02:45;;;;;;;19.27;4.43;;;6.90;99.90;;;;;;7354585;19;112360;-92
2022/01/31 00:05:13;;;;;;;21.87;4.73;;;7.00;99.90;;;;;;7348936;19;109799;-94
2022/01/31 00:07:40;;;;;;;22.80;4.80;;;7.00;99.90;;;;;;7352123;19;110437;-94
2022/01/31 00:10:10;;;;;;;22.97;4.53;;;7.00;99.90;;;;;;7352288;19;108146;-93
2022/01/31 00:12:52;;;;;;;20.23;4.43;;;7.00;99.90;;;;;;7364319;19;109969;-91
2022/01/31 00:15:19;;;;;;;23.30;4.73;;;7.10;99.90;;;;;;7369719;19;109068;-91
2022/01/31 00:17:46;;;;;;;23.30;4.43;;;7.10;99.90;;;;;;7366459;19;109493;-92
2022/01/31 00:20:14;;;;;;;21.13;3.83;;;7.10;99.90;;;;;;7370916;19;109816;-91
2022/01/31 00:22:41;;;;;;;22.43;4.10;;;7.10;99.90;;;;;;7346202;19;108326;-92
2022/01/31 00:25:09;;;;;;;20.63;3.67;;;7.20;99.90;;;;;;7349287;19;108715;-92
2022/01/31 00:27:36;;;;;;;23.13;3.83;;;7.20;99.90;;;;;;7346056;19;110232;-94
2022/01/31 00:30:05;;;;;;;20.33;3.87;;;7.20;99.90;;;;;;7341460;19;111158;-93
2022/01/31 00:32:32;;;;;;;20.50;3.97;;;7.30;99.90;;;;;;7344307;19;108120;-94
2022/01/31 00:34:59;;;;;;;15.33;3.57;;;7.30;99.90;;;;;;7346000;19;109283;-92
2022/01/31 00:37:26;;;;;;;17.33;3.83;;;7.30;99.90;;;;;;7343487;19;109894;-94
2022/01/31 00:39:54;;;;;;;16.53;3.60;;;7.30;99.90;;;;;;7344983;19;109092;-94
2022/01/31 00:42:22;;;;;;;26.53;3.90;;;7.40;99.90;;;;;;7345157;19;112204;-94
2022/01/31 00:44:53;;;;;;;17.83;3.20;;;7.40;99.90;;;;;;7351496;19;108435;-92
2022/01/31 00:47:26;;;;;;;25.67;4.23;;;7.40;99.90;;;;;;7345061;19;109488;-92
2022/01/31 00:50:07;;;;;;;17.33;4.00;;;7.40;99.90;;;;;;7343618;19;108560;-93
2022/01/31 00:52:35;;;;;;;17.47;3.63;;;7.30;99.90;;;;;;7346465;19;111946;-92
2022/01/31 00:55:04;;;;;;;21.70;3.60;;;7.40;99.90;;;;;;7342185;19;112267;-93
2022/01/31 00:57:31;;;;;;;21.13;3.47;;;7.40;99.90;;;;;;7345989;19;108301;-93
2022/01/31 00:59:58;;;;;;;23.20;3.90;;;7.40;99.90;;;;;;7343854;19;112673;-93
2022/01/31 01:02:26;;;;;;;18.67;4.07;;;7.50;99.90;;;;;;7344543;19;110235;-94
2022/01/31 01:04:54;;;;;;;20.23;3.57;;;7.40;99.90;;;;;;7344408;19;109117;-93
2022/01/31 01:07:22;;;;;;;20.97;3.67;;;7.50;99.90;;;;;;7347386;19;110296;-93
2022/01/31 01:09:49;;;;;;;26.80;4.30;;;7.50;99.90;;;;;;7345229;19;108710;-93
2022/01/31 01:12:18;;;;;;;14.83;3.77;;;7.50;99.90;;;;;;7344818;19;109380;-91
2022/01/31 01:14:48;;;;;;;20.63;3.57;;;7.50;99.90;;;;;;7343313;19;110281;-92
2022/01/31 01:17:17;;;;;;;17.03;4.10;;;7.50;99.90;;;;;;7344193;19;108835;-92
2022/01/31 01:19:45;;;;;;;22.93;4.30;;;7.50;99.90;;;;;;7341466;19;109138;-93
2022/01/31 01:22:12;;;;;;;18.93;3.73;;;7.50;99.90;;;;;;7343405;19;110502;-92
2022/01/31 01:24:39;;;;;;;27.57;4.53;;;7.50;99.90;;;;;;7342066;19;108229;-92
2022/01/31 01:27:08;;;;;;;20.53;3.97;;;7.40;99.90;;;;;;7343604;19;108461;-93
2022/01/31 01:29:36;;;;;;;23.47;3.87;;;7.40;99.90;;;;;;7349909;19;110398;-93
2022/01/31 01:32:04;;;;;;;23.30;4.40;;;7.40;99.90;;;;;;7341761;19;108333;-93
2022/01/31 01:34:34;;;;;;;27.00;4.57;;;7.40;99.90;;;;;;7342510;19;109932;-94
2022/01/31 01:37:01;;;;;;;19.07;4.03;;;7.30;99.90;;;;;;7343552;19;108993;-93
2022/01/31 01:39:28;;;;;;;24.20;3.70;;;7.30;99.90;;;;;;7343985;19;109964;-95
2022/01/31 01:41:55;;;;;;;24.13;4.17;;;7.30;99.90;;;;;;7345811;19;112447;-93
2022/01/31 01:44:50;;;;;;;18.70;3.93;;;7.40;99.90;;;;;;7342515;19;109740;-94
2022/01/31 01:47:23;;;;;;;26.20;3.90;;;7.30;99.90;;;;;;7342199;19;109476;-92
2022/01/31 01:49:51;;;;;;;22.10;3.90;;;7.30;99.90;;;;;;7342428;19;110399;-92
2022/01/31 01:52:19;;;;;;;24.40;5.10;;;7.30;99.90;;;;;;7350269;19;108434;-94
2022/01/31 01:54:47;;;;;;;28.07;4.37;;;7.30;99.90;;;;;;7341838;19;110330;-92
2022/01/31 01:57:16;;;;;;;19.80;4.10;;;7.30;99.90;;;;;;7344153;19;108096;-93
2022/01/31 01:59:44;;;;;;;17.03;4.43;;;7.30;99.90;;;;;;7345814;19;108847;-94
2022/01/31 02:02:11;;;;;;;24.13;3.97;;;7.30;99.90;;;;;;7341871;19;109679;-93
2022/01/31 02:04:38;;;;;;;21.07;3.87;;;7.30;99.90;;;;;;7343948;19;108349;-93
2022/01/31 02:07:05;;;;;;;17.80;3.13;;;7.30;99.90;;;;;;7345633;19;109367;-94
2022/01/31 02:09:41;;;;;;;23.67;3.80;;;7.30;99.90;;;;;;7344085;19;109543;-93
2022/01/31 02:12:09;;;;;;;26.27;4.60;;;7.20;99.90;;;;;;7345833;19;108288;-93
2022/01/31 02:14:36;;;;;;;24.37;4.03;;;7.30;99.90;;;;;;7348316;19;109950;-94
2022/01/31 02:17:04;;;;;;;15.33;3.67;;;7.30;99.90;;;;;;7344842;19;108381;-93
2022/01/31 02:19:32;;;;;;;22.13;4.70;;;7.40;99.90;;;;;;7344860;19;108335;-94
2022/01/31 02:21:59;;;;;;;14.80;3.27;;;7.30;99.90;;;;;;7342650;19;109602;-96
2022/01/31 02:24:26;;;;;;;17.63;3.30;;;7.30;99.90;;;;;;7344843;19;108656;-95
2022/01/31 02:26:53;;;;;;;20.03;3.73;;;7.40;99.90;;;;;;7340845;19;108927;-96
2022/01/31 02:29:20;;;;;;;9.77;3.10;;;7.40;99.90;;;;;;7345359;19;109598;-94
2022/01/31 02:31:49;;;;;;;14.87;3.53;;;7.40;99.90;;;;;;7339906;19;108119;-94
2022/01/31 02:34:16;;;;;;;9.77;2.90;;;7.50;99.90;;;;;;7346924;19;108532;-93
2022/01/31 02:36:44;;;;;;;12.37;3.10;;;7.50;99.90;;;;;;7343184;19;108183;-94
2022/01/31 02:39:11;;;;;;;16.80;3.20;;;7.50;99.90;;;;;;7341743;19;108920;-93
2022/01/31 02:41:46;;;;;;;10.00;2.60;;;7.50;99.90;;;;;;7343272;19;108893;-94
2022/01/31 02:44:16;;;;;;;9.40;2.87;;;7.60;99.90;;;;;;7339538;19;109738;-95
2022/01/31 02:46:52;;;;;;;13.47;2.77;;;7.60;99.90;;;;;;7343873;19;109634;-94
2022/01/31 02:49:24;;;;;;;11.30;2.43;;;7.60;99.90;;;;;;7344318;19;110560;-94
2022/01/31 02:51:59;;;;;;;11.83;3.20;;;7.60;99.90;;;;;;7340161;19;108241;-95
2022/01/31 02:54:29;;;;;;;15.17;3.10;;;7.60;99.90;;;;;;7343111;19;109237;-94
2022/01/31 02:56:56;;;;;;;10.23;2.67;;;7.60;99.90;;;;;;7343694;19;110203;-94
2022/01/31 02:59:23;;;;;;;8.93;2.87;;;7.60;99.90;;;;;;7343643;19;109662;-94
2022/01/31 03:01:50;;;;;;;11.63;3.10;;;7.60;99.90;;;;;;7348817;19;109437;-95
2022/01/31 03:04:17;;;;;;;10.47;2.97;;;7.60;99.90;;;;;;7347536;19;108327;-95
2022/01/31 03:06:49;;;;;;;9.73;2.97;;;7.70;99.90;;;;;;7350016;19;109834;-94
2022/01/31 03:09:17;;;;;;;16.13;3.37;;;7.70;99.90;;;;;;7346004;19;109828;-94
2022/01/31 03:11:44;;;;;;;10.87;3.43;;;7.70;99.90;;;;;;7349387;19;108380;-96
2022/01/31 03:14:15;;;;;;;15.67;5.30;;;7.70;99.90;;;;;;7350188;19;108236;-94
2022/01/31 03:16:47;;;;;;;12.43;4.17;;;7.80;99.90;;;;;;7347508;19;110366;-95
2022/01/31 03:19:16;;;;;;;11.20;4.47;;;7.90;99.90;;;;;;7356058;19;108171;-94
2022/01/31 03:21:44;;;;;;;18.40;5.50;;;7.80;99.90;;;;;;7346280;19;109547;-94
2022/01/31 03:24:12;;;;;;;13.48;3.80;;;7.80;99.90;;;;;;7348216;19;108280;-94
2022/01/31 03:26:40;;;;;;;18.10;5.03;;;7.90;99.90;;;;;;7348092;19;109862;-93
2022/01/31 03:29:08;;;;;;;18.48;4.45;;;7.90;99.90;;;;;;7347161;19;110859;-94
2022/01/31 03:31:36;;;;;;;22.65;4.32;;;7.90;99.90;;;;;;7350892;19;108156;-95
2022/01/31 03:34:04;;;;;;;15.77;4.17;;;8.00;99.90;;;;;;7344783;19;109661;-95
2022/01/31 03:36:31;;;;;;;12.00;3.80;;;8.00;99.90;;;;;;7347674;19;110435;-95
2022/01/31 03:38:58;;;;;;;14.30;4.20;;;8.00;99.90;;;;;;7347828;19;108206;-95
2022/01/31 03:41:26;;;;;;;20.95;3.28;;;8.00;99.90;;;;;;7353206;19;110473;-95
2022/01/31 03:43:53;;;;;;;18.20;4.10;;;8.10;99.90;;;;;;7350583;19;108111;-95
2022/01/31 03:46:20;;;;;;;18.02;3.47;;;8.10;99.90;;;;;;7344871;19;108573;-94
2022/01/31 03:48:48;;;;;;;16.75;3.00;;;8.10;99.90;;;;;;7349253;19;109292;-94
2022/01/31 03:51:15;;;;;;;16.40;2.83;;;8.20;99.90;;;;;;7347992;19;109160;-94
2022/01/31 03:53:43;;;;;;;14.40;2.92;;;8.20;99.90;;;;;;7347976;19;109040;-96
2022/01/31 03:56:10;;;;;;;18.85;2.63;;;8.20;99.90;;;;;;7350537;19;110665;-94
2022/01/31 03:58:37;;;;;;;16.00;2.55;;;8.20;99.90;;;;;;7344303;19;108914;-96
2022/01/31 04:01:04;;;;;;;12.43;2.53;;;8.20;99.90;;;;;;7348376;19;108272;-94
2022/01/31 04:03:31;;;;;;;18.00;2.75;;;8.30;99.90;;;;;;7353510;19;110206;-94
2022/01/31 04:05:59;;;;;;;21.00;2.83;;;8.30;99.90;;;;;;7347721;19;108733;-93
2022/01/31 04:08:26;;;;;;;14.95;2.90;;;8.20;99.90;;;;;;7346818;19;110922;-95
2022/01/31 04:10:53;;;;;;;17.48;2.70;;;8.20;99.90;;;;;;7345040;19;108183;-95
2022/01/31 04:13:20;;;;;;;14.48;2.80;;;8.20;99.90;;;;;;7348088;19;108855;-94
2022/01/31 04:15:47;;;;;;;18.70;2.50;;;8.30;99.90;;;;;;7345515;19;110514;-94
2022/01/31 04:18:15;;;;;;;16.02;2.83;;;8.30;99.90;;;;;;7346770;19;109733;-95
2022/01/31 04:20:43;;;;;;;13.75;3.08;;;8.30;99.90;;;;;;7347579;19;110230;-94
2022/01/31 04:23:16;;;;;;;15.07;1.87;;;8.30;99.90;;;;;;7347027;19;108751;-95
2022/01/31 04:25:46;;;;;;;17.75;2.45;;;8.20;99.90;;;;;;7353021;19;109606;-95
2022/01/31 04:28:21;;;;;;;13.13;2.30;;;8.30;99.90;;;;;;7345145;19;109230;-94
2022/01/31 04:31:14;;;;;;;13.30;1.95;;;8.30;99.90;;;;;;7347847;19;110570;-95
2022/01/31 04:33:42;;;;;;;12.30;2.40;;;8.20;99.90;;;;;;7347389;19;108592;-96
2022/01/31 04:36:14;;;;;;;18.75;2.20;;;8.20;99.90;;;;;;7346530;19;110616;-94
2022/01/31 04:38:42;;;;;;;11.32;1.58;;;8.20;99.90;;;;;;7348279;19;108869;-95
2022/01/31 04:41:09;;;;;;;14.32;2.30;;;8.10;99.90;;;;;;7348075;19;108368;-94
2022/01/31 04:43:37;;;;;;;15.52;2.40;;;8.10;99.90;;;;;;7347427;19;110168;-95
2022/01/31 04:46:07;;;;;;;15.80;2.05;;;8.20;99.90;;;;;;7352548;19;109077;-95
2022/01/31 04:48:34;;;;;;;14.85;2.92;;;8.20;99.90;;;;;;7344741;19;110628;-95
2022/01/31 04:51:02;;;;;;;24.33;2.80;;;8.20;99.90;;;;;;7350122;19;109534;-96
2022/01/31 04:53:29;;;;;;;10.88;2.00;;;8.10;99.90;;;;;;7351693;19;109475;-95
2022/01/31 04:55:57;;;;;;;14.20;2.65;;;8.10;99.90;;;;;;7350106;19;109319;-95
2022/01/31 04:58:25;;;;;;;8.30;2.50;;;8.10;99.90;;;;;;7367285;19;108329;-94
2022/01/31 05:00:52;;;;;;;17.92;2.40;;;8.10;99.90;;;;;;7372275;19;108543;-94
2022/01/31 05:03:20;;;;;;;14.25;2.35;;;8.10;99.90;;;;;;7378437;19;107864;-94
2022/01/31 05:05:48;;;;;;;15.48;2.35;;;8.10;99.90;;;;;;7376187;19;107987;-94
2022/01/31 05:08:17;;;;;;;15.57;2.13;;;8.10;99.90;;;;;;7381890;19;109197;-94
2022/01/31 05:10:47;;;;;;;16.33;2.08;;;8.10;99.90;;;;;;7376687;19;108051;-94
2022/01/31 05:13:15;;;;;;;22.05;2.78;;;8.10;99.90;;;;;;7372326;19;108546;-96
2022/01/31 05:15:46;;;;;;;18.08;1.85;;;8.10;99.90;;;;;;7372756;19;108281;-95
2022/01/31 05:18:15;;;;;;;23.75;2.97;;;8.10;99.90;;;;;;7374877;19;108084;-93
2022/01/31 05:20:42;;;;;;;20.35;2.92;;;8.20;99.90;;;;;;7375670;19;108875;-94
2022/01/31 05:23:09;;;;;;;17.83;3.10;;;8.20;99.90;;;;;;7364449;19;109018;-93
2022/01/31 05:25:37;;;;;;;17.65;2.63;;;8.20;99.90;;;;;;7368001;19;108614;-94
2022/01/31 05:28:05;;;;;;;14.83;3.03;;;8.20;99.90;;;;;;7374957;19;107705;-93
2022/01/31 05:30:32;;;;;;;25.35;2.63;;;8.20;99.90;;;;;;7372874;19;109025;-95
2022/01/31 05:32:59;;;;;;;19.55;2.70;;;8.20;99.90;;;;;;7374691;19;107981;-95
2022/01/31 05:35:26;;;;;;;15.13;2.08;;;8.20;99.90;;;;;;7370099;19;108605;-94
2022/01/31 05:37:54;;;;;;;14.95;2.08;;;8.30;99.90;;;;;;7362803;19;108319;-95
2022/01/31 05:40:21;;;;;;;11.95;2.13;;;8.30;99.90;;;;;;7356054;19;109843;-93
2022/01/31 05:42:49;;;;;;;15.57;2.60;;;8.40;99.90;;;;;;7350751;19;110145;-93
2022/01/31 05:45:16;;;;;;;18.80;2.72;;;8.30;99.90;;;;;;7349239;19;108302;-92
2022/01/31 05:47:43;;;;;;;18.90;2.53;;;8.30;99.90;;;;;;7347371;19;109582;-91
2022/01/31 05:50:10;;;;;;;14.13;2.63;;;8.20;99.90;;;;;;7345609;19;111344;-93
2022/01/31 05:52:37;;;;;;;20.70;2.38;;;8.20;99.90;;;;;;7359504;19;109282;-93
2022/01/31 05:55:06;;;;;;;22.75;2.40;;;8.20;99.90;;;;;;7344654;19;109583;-94
2022/01/31 05:57:33;;;;;;;14.00;2.97;;;8.30;99.90;;;;;;7345372;19;109245;-93
2022/01/31 06:00:01;;;;;;;20.35;2.88;;;8.20;99.90;;;;;;7341309;19;109289;-95
2022/01/31 06:02:28;;;;;;;20.75;2.50;;;8.20;99.90;;;;;;7343068;19;109863;-95
2022/01/31 06:04:55;;;;;;;26.20;3.03;;;8.20;99.90;;;;;;7344280;19;108313;-95
2022/01/31 06:07:22;;;;;;;14.25;1.98;;;8.20;99.90;;;;;;7341269;19;109926;-95
2022/01/31 06:09:49;;;;;;;17.50;2.30;;;8.20;99.90;;;;;;7343739;19;110433;-95
2022/01/31 06:12:17;;;;;;;20.70;2.80;;;8.40;99.90;;;;;;7341062;19;108289;-94
2022/01/31 06:14:44;;;;;;;15.10;2.35;;;8.20;99.90;;;;;;7347502;19;109906;-94
2022/01/31 06:17:11;;;;;;;25.25;2.97;;;8.40;99.90;;;;;;7339065;19;109093;-93
2022/01/31 06:19:38;;;;;;;19.33;2.87;;;8.30;99.90;;;;;;7342479;19;109614;-94
2022/01/31 06:22:05;;;;;;;19.75;2.55;;;8.30;99.90;;;;;;7342484;19;109534;-94
2022/01/31 06:24:33;;;;;;;16.15;2.30;;;8.30;99.90;;;;;;7343919;19;111172;-93
2022/01/31 06:27:00;;;;;;;17.38;2.45;;;8.30;99.90;;;;;;7344485;19;108988;-93
2022/01/31 06:29:27;;;;;;;18.10;2.45;;;8.30;99.90;;;;;;7341924;19;110696;-94
2022/01/31 06:31:54;;;;;;;16.15;2.33;;;8.30;99.90;;;;;;7340381;19;108438;-93
2022/01/31 06:34:21;;;;;;;18.23;2.22;;;8.30;99.90;;;;;;7347899;19;109986;-96
2022/01/31 06:36:48;;;;;;;10.95;2.30;;;8.30;99.90;;;;;;7355644;19;109490;-93
2022/01/31 06:39:16;;;;;;;12.00;2.15;;;8.30;99.90;;;;;;7352804;19;109217;-92
2022/01/31 06:41:43;;;;;;;12.95;2.42;;;8.20;99.90;;;;;;7344970;19;109646;-93
2022/01/31 06:44:10;;;;;;;13.32;2.05;;;8.20;99.90;;;;;;7351415;19;108274;-91
2022/01/31 06:46:37;;;;;;;13.65;2.28;;;8.20;99.90;;;;;;7345409;19;109138;-94
2022/01/31 06:49:04;;;;;;;14.48;1.98;;;8.20;99.90;;;;;;7348717;19;109808;-93
2022/01/31 06:51:32;;;;;;;11.73;1.65;;;8.20;99.90;;;;;;7348141;19;110248;-88
2022/01/31 06:54:00;;;;;;;11.15;1.98;;;8.10;99.90;;;;;;7342056;19;109725;-89
2022/01/31 06:56:34;;;;;;;17.25;2.22;;;8.10;99.90;;;;;;7350299;19;110200;-88
2022/01/31 06:59:02;;;;;;;19.70;3.00;;;8.10;99.90;;;;;;7341824;19;109469;-91
2022/01/31 07:01:30;;;;;;;14.20;2.58;;;8.00;99.90;;;;;;7346832;19;109970;-89
2022/01/31 07:03:58;;;;;;;13.30;2.30;;;8.10;99.90;;;;;;7346808;19;109280;-89
2022/01/31 07:06:25;;;;;;;17.73;2.55;;;8.00;99.90;;;;;;7344377;19;108970;-89
2022/01/31 07:08:53;;;;;;;20.03;2.60;;;8.00;99.90;;;;;;7346793;19;110301;-90
2022/01/31 07:11:26;;;;;;;19.05;2.50;;;8.00;99.90;;;;;;7344257;19;109901;-89
2022/01/31 07:14:08;;;;;;;16.25;2.35;;;8.00;99.90;;;;;;7346656;19;109544;-89
2022/01/31 07:16:36;;;;;;;19.88;1.92;;;7.90;99.90;;;;;;7344216;19;110605;-89
2022/01/31 07:19:08;;;;;;;22.90;2.83;;;7.90;99.90;;;;;;7350721;19;108905;-89
2022/01/31 07:21:50;;;;;;;15.27;2.17;;;7.90;99.90;;;;;;7345438;19;110571;-90
2022/01/31 07:24:30;;;;;;;17.15;2.20;;;7.90;99.90;;;;;;7343260;19;110872;-90
2022/01/31 07:26:57;;;;;;;14.82;1.95;;;7.90;99.90;;;;;;7345547;19;109518;-89
2022/01/31 07:29:24;;;;;;;16.95;2.70;;;7.80;99.90;;;;;;7346642;19;109961;-89
2022/01/31 07:31:56;;;;;;;16.80;2.42;;;7.80;99.90;;;;;;7342078;19;109332;-90
2022/01/31 07:34:24;;;;;;;15.52;2.63;;;7.80;99.90;;;;;;7344411;19;108391;-88
2022/01/31 07:36:52;;;;;;;13.45;2.65;;;7.70;99.90;;;;;;7343856;19;109585;-90
2022/01/31 07:39:20;;;;;;;14.32;2.08;;;7.70;99.90;;;;;;7347027;19;108423;-91
2022/01/31 07:41:48;;;;;;;21.65;3.30;;;7.80;99.90;;;;;;7350882;19;109205;-88
2022/01/31 07:44:16;;;;;;;15.73;2.60;;;7.80;99.90;;;;;;7341376;19;108464;-89
2022/01/31 07:46:43;;;;;;;18.93;2.50;;;7.70;99.90;;;;;;7344507;19;108854;-90
2022/01/31 07:49:10;;;;;;;17.00;2.08;;;7.70;99.90;;;;;;7343808;19;110622;-89
2022/01/31 07:51:40;;;;;;;28.35;2.70;;;7.70;99.90;;;;;;7344393;19;108372;-89
2022/01/31 07:54:09;;;;;;;11.30;2.23;;;7.70;99.90;;;;;;7345630;19;109474;-89
2022/01/31 07:56:37;;;;;;;29.03;2.93;;;7.70;99.90;;;;;;7343972;19;111216;-89
2022/01/31 07:59:04;;;;;;;11.77;2.60;;;7.70;99.90;;;;;;7344437;19;108371;-89
2022/01/31 08:01:31;;;;;;;19.63;2.37;;;7.60;99.90;;;;;;7342227;19;110155;-89
2022/01/31 08:03:59;;;;;;;20.23;2.72;;;7.70;99.90;;;;;;7350225;19;109996;-89
2022/01/31 08:06:26;;;;;;;11.57;2.27;;;7.80;99.90;;;;;;7343250;19;109809;-88
2022/01/31 08:08:54;;;;;;;12.15;2.55;;;7.80;99.90;;;;;;7344058;19;110235;-89
2022/01/31 08:11:24;;;;;;;18.10;2.80;;;7.80;99.90;;;;;;7343997;19;109411;-89
2022/01/31 08:13:57;;;;;;;21.20;2.80;;;7.70;99.90;;;;;;7340251;19;109495;-89
2022/01/31 08:16:24;;;;;;;17.10;2.60;;;7.70;99.90;;;;;;7344405;19;111750;-88
2022/01/31 08:18:52;;;;;;;21.03;2.77;;;7.80;99.90;;;;;;7342050;19;108435;-89
2022/01/31 08:21:25;;;;;;;18.23;3.30;;;7.70;99.90;;;;;;7341457;19;109081;-88
2022/01/31 08:23:53;;;;;;;27.87;3.90;;;7.80;99.90;;;;;;7343421;19;111177;-89
2022/01/31 08:26:21;;;;;;;15.90;2.97;;;7.70;99.90;;;;;;7347739;19;108521;-89
2022/01/31 08:28:55;;;;;;;22.73;2.88;;;7.70;99.90;;;;;;7342576;19;110270;-88
2022/01/31 08:31:34;;;;;;;19.55;3.63;;;7.80;99.90;;;;;;7342405;19;108145;-89
2022/01/31 08:34:17;;;;;;;19.23;2.73;;;7.90;99.90;;;;;;7342454;19;110067;-89
2022/01/31 08:36:45;;;;;;;24.30;3.60;;;7.90;99.90;;;;;;7341744;19;114072;-90
2022/01/31 08:39:18;;;;;;;24.65;3.75;;;7.90;99.90;;;;;;7340253;19;108324;-90
2022/01/31 08:41:48;;;;;;;28.23;3.17;;;7.90;99.90;;;;;;7344343;19;109909;-90
2022/01/31 08:44:19;;;;;;;22.27;2.67;;;8.00;99.90;;;;;;7342654;19;110160;-89
2022/01/31 08:46:48;;;;;;;25.08;3.75;;;7.90;99.90;;;;;;7340557;19;108656;-90
2022/01/31 08:49:16;;;;;;;13.80;2.47;;;8.00;99.90;;;;;;7348986;19;109629;-89
2022/01/31 08:51:44;;;;;;;21.65;3.40;;;7.90;99.90;;;;;;7339505;19;108344;-90
2022/01/31 08:54:12;;;;;;;13.75;2.92;;;7.90;99.90;;;;;;7343055;19;110791;-89
2022/01/31 08:56:44;;;;;;;20.35;2.55;;;7.90;99.90;;;;;;7342657;19;110056;-90
2022/01/31 08:59:14;;;;;;;16.75;2.97;;;8.10;99.90;;;;;;7340756;19;110017;-89
2022/01/31 09:01:43;;;;;;;26.47;3.77;;;8.00;99.90;;;;;;7342262;19;112179;-89
2022/01/31 09:04:12;;;;;;;32.03;4.40;;;8.10;99.90;;;;;;7340455;19;110196;-89
2022/01/31 09:06:39;;;;;;;22.40;3.37;;;8.10;99.90;;;;;;7342911;19;109049;-88
2022/01/31 09:09:08;;;;;;;27.08;3.42;;;8.10;99.90;;;;;;7349002;19;109881;-88
2022/01/31 09:11:37;;;;;;;19.20;2.92;;;8.00;99.90;;;;;;7340229;19;109587;-89
2022/01/31 09:14:04;;;;;;;21.88;2.78;;;8.00;99.90;;;;;;7342533;19;109364;-90
2022/01/31 09:16:31;;;;;;;24.35;3.28;;;8.10;99.90;;;;;;7337492;19;110960;-91
2022/01/31 09:18:59;;;;;;;31.45;3.22;;;8.20;99.90;;;;;;7344628;19;108523;-90
2022/01/31 09:21:26;;;;;;;16.25;2.72;;;8.10;99.90;;;;;;7339157;19;111972;-91
2022/01/31 09:23:53;;;;;;;18.35;2.78;;;8.20;99.90;;;;;;7341166;19;110793;-92
2022/01/31 09:26:22;;;;;;;20.33;3.03;;;8.20;99.90;;;;;;7340634;19;111499;-92
2022/01/31 09:28:53;;;;;;;19.77;2.77;;;8.20;99.90;;;;;;7339064;19;111150;-89
2022/01/31 09:31:21;;;;;;;20.17;3.00;;;8.30;99.90;;;;;;7343653;19;110424;-91
2022/01/31 09:33:50;;;;;;;18.27;3.05;;;8.20;99.90;;;;;;7339863;19;109008;-92
2022/01/31 09:36:17;;;;;;;15.57;2.75;;;8.10;99.90;;;;;;7340117;19;110257;-91
2022/01/31 09:38:44;;;;;;;16.87;3.37;;;8.10;99.90;;;;;;7342617;19;108705;-90
2022/01/31 09:41:17;;;;;;;19.17;3.17;;;7.90;99.90;;;;;;7341820;19;110741;-91
2022/01/31 09:46:34;;;;;;;22.07;2.90;;;7.80;99.90;;;;;;7340287;19;109372;-90
2022/01/31 09:49:01;;;;;;;18.50;3.20;;;7.80;99.90;;;;;;7342089;19;108163;-90
2022/01/31 09:51:28;;;;;;;20.13;3.50;;;7.70;99.90;;;;;;7341845;19;110368;-90
2022/01/31 09:53:58;;;;;;;24.00;3.20;;;7.70;99.90;;;;;;7348762;19;108333;-90
2022/01/31 09:56:31;;;;;;;23.48;3.22;;;7.90;99.90;;;;;;7341941;19;109971;-90
2022/01/31 09:59:09;;;;;;;22.83;3.60;;;7.90;99.90;;;;;;7342020;19;110660;-89
2022/01/31 10:01:55;;;;;;;25.67;4.00;;;7.90;99.90;;;;;;7341673;19;110000;-88
2022/01/31 10:04:30;;;;;;;30.38;3.67;;;7.90;99.90;;;;;;7348980;19;109473;-88
2022/01/31 10:06:58;;;;;;;19.93;3.43;;;8.00;99.90;;;;;;7345532;19;111213;-90
2022/01/31 10:09:33;;;;;;;31.70;4.13;;;8.00;99.90;;;;;;7352253;19;109855;-88
2022/01/31 10:12:06;;;;;;;30.38;5.25;;;8.00;99.90;;;;;;7345154;19;109931;-89
2022/01/31 10:17:42;;;;;;;33.57;4.23;;;8.20;99.90;;;;;;7345911;19;109487;-90
2022/01/31 10:20:25;;;;;;;33.28;4.25;;;8.20;99.90;;;;;;7337869;19;109477;-92
2022/01/31 10:22:52;;;;;;;27.30;3.83;;;8.20;99.90;;;;;;7340848;19;108554;-92
2022/01/31 10:25:22;;;;;;;29.60;4.18;;;8.20;99.90;;;;;;7341160;19;108681;-91
2022/01/31 10:28:18;;;;;;;30.33;3.60;;;8.20;99.90;;;;;;7337473;19;108436;-90
2022/01/31 10:30:48;;;;;;;32.25;4.88;;;8.20;99.90;;;;;;7342577;19;109033;-91
2022/01/31 10:33:17;;;;;;;34.40;4.47;;;8.20;99.90;;;;;;7338480;19;110370;-90
2022/01/31 10:35:45;;;;;;;24.67;3.55;;;8.20;99.90;;;;;;7340161;19;109366;-89
2022/01/31 10:38:16;;;;;;;27.05;4.43;;;8.20;99.90;;;;;;7337250;19;109381;-91
2022/01/31 10:46:31;;;;;;;28.63;4.80;;;8.50;99.90;;;;;;7337820;19;110243;-91
2022/01/31 10:56:55;;;;;;;23.38;3.78;;;8.60;99.90;;;;;;7341252;19;108765;-90
2022/01/31 10:59:30;;;;;;;15.80;2.97;;;8.50;99.90;;;;;;7342136;19;109114;-91
2022/01/31 11:01:59;;;;;;;17.02;3.00;;;8.60;99.90;;;;;;7339705;19;111378;-92
2022/01/31 11:04:31;;;;;;;28.70;3.13;;;8.50;99.90;;;;;;7347522;19;108178;-92
2022/01/31 11:07:01;;;;;;;17.20;3.45;;;8.40;99.90;;;;;;7336951;19;110208;-93
2022/01/31 11:09:30;;;;;;;31.83;4.30;;;8.40;99.90;;;;;;7341282;19;108288;-89
2022/01/31 11:11:58;;;;;;;30.98;4.18;;;8.40;99.90;;;;;;7339008;19;109584;-90
2022/01/31 11:14:26;;;;;;;30.73;4.07;;;8.40;99.90;;;;;;7339398;19;111404;-90
2022/01/31 11:16:56;;;;;;;31.17;4.38;;;8.40;99.90;;;;;;7339706;19;108360;-90
2022/01/31 11:19:31;;;;;;;26.33;3.80;;;8.50;99.90;;;;;;7324803;19;108917;-89
2022/01/31 11:22:02;;;;;;;33.33;4.18;;;8.40;99.90;;;;;;7344094;19;110523;-90
2022/01/31 11:24:49;;;;;;;30.50;4.88;;;8.40;99.90;;;;;;7348875;19;108823;-89
2022/01/31 11:27:22;;;;;;;42.55;5.47;;;8.30;99.90;;;;;;7342586;19;114375;-91
2022/01/31 11:29:55;;;;;;;45.83;6.38;;;8.40;99.90;;;;;;7345393;19;108500;-90
2022/01/31 11:32:24;;;;;;;47.65;6.03;;;8.40;99.90;;;;;;7341831;19;109235;-90
2022/01/31 11:34:53;;;;;;;49.00;5.63;;;8.30;99.90;;;;;;7346234;19;109522;-88
2022/01/31 11:37:22;;;;;;;32.67;4.43;;;8.30;99.90;;;;;;7341880;19;113242;-88
2022/01/31 11:40:10;;;;;;;41.63;5.22;;;8.20;99.90;;;;;;7342766;19;108802;-90
2022/01/31 11:42:41;;;;;;;38.63;6.07;;;8.10;99.90;;;;;;7345958;19;109068;-90
2022/01/31 11:45:20;;;;;;;38.45;4.75;;;8.10;99.90;;;;;;7343623;19;109620;-89
2022/01/31 11:47:52;;;;;;;36.10;5.20;;;8.10;99.90;;;;;;7349668;19;112198;-89
2022/01/31 11:50:22;;;;;;;40.35;6.15;;;8.20;99.90;;;;;;7345028;19;112106;-90
2022/01/31 11:52:58;;;;;;;36.55;5.45;;;8.00;99.90;;;;;;7342108;19;109808;-89
2022/01/31 11:55:38;;;;;;;39.53;5.68;;;8.10;99.90;;;;;;7344551;19;110533;-89
2022/01/31 11:58:07;;;;;;;34.60;5.25;;;8.20;99.90;;;;;;7341487;19;108606;-91
2022/01/31 12:00:40;;;;;;;39.53;5.93;;;8.30;99.90;;;;;;7344850;19;109523;-91
2022/01/31 12:03:14;;;;;;;40.75;5.07;;;8.20;99.90;;;;;;7344641;19;110278;-89
2022/01/31 12:05:43;;;;;;;35.85;5.35;;;8.20;99.90;;;;;;7341445;19;108971;-88
2022/01/31 12:08:20;;;;;;;41.80;5.25;;;8.20;99.90;;;;;;7344699;19;109375;-90
2022/01/31 12:11:25;;;;;;;27.67;5.07;;;8.30;99.90;;;;;;7350233;19;110758;-90
2022/01/31 12:13:56;;;;;;;33.03;5.07;;;8.40;99.90;;;;;;7341923;19;108748;-89
2022/01/31 12:16:51;;;;;;;36.55;5.18;;;8.40;99.90;;;;;;7344671;19;110463;-90
2022/01/31 12:22:05;;;;;;;36.22;5.40;;;8.30;99.90;;;;;;7341838;19;109807;-88
2022/01/31 12:24:38;;;;;;;37.70;5.55;;;8.40;99.90;;;;;;7343458;19;110487;-90
2022/01/31 12:27:25;;;;;;;35.80;5.83;;;8.40;99.90;;;;;;7340225;19;108537;-89
2022/01/31 12:29:56;;;;;;;36.90;5.23;;;8.20;99.90;;;;;;7341052;19;109671;-90
2022/01/31 12:32:25;;;;;;;35.70;5.40;;;8.20;99.90;;;;;;7343794;19;110534;-90
2022/01/31 12:34:56;;;;;;;40.85;6.00;;;8.20;99.90;;;;;;7346433;19;109280;-90
2022/01/31 12:37:25;;;;;;;40.00;6.32;;;8.10;99.90;;;;;;7343675;19;111037;-88
2022/01/31 12:39:59;;;;;;;39.80;5.13;;;7.90;99.90;;;;;;7339517;19;108402;-90
2022/01/31 12:45:15;;;;;;;46.78;6.20;;;8.00;99.90;;;;;;7344159;19;110465;-90
2022/01/31 12:48:11;;;;;;;37.40;5.97;;;7.80;99.90;;;;;;7341009;19;110697;-91
2022/01/31 12:50:59;;;;;;;52.83;6.97;;;7.90;99.90;;;;;;7342355;19;108477;-90
2022/01/31 12:56:26;;;;;;;48.87;6.17;;;7.70;99.90;;;;;;7340919;19;109565;-89
2022/01/31 12:59:15;;;;;;;46.08;5.80;;;7.80;99.90;;;;;;7343775;19;108807;-89
2022/01/31 13:01:48;;;;;;;53.90;6.57;;;7.70;99.90;;;;;;7342404;19;108741;-90
2022/01/31 13:04:20;;;;;;;45.80;6.93;;;7.60;99.90;;;;;;7340945;19;108828;-90
2022/01/31 13:06:50;;;;;;;53.57;6.43;;;7.60;99.90;;;;;;7340221;19;109955;-89
2022/01/31 13:09:27;;;;;;;58.80;7.87;;;7.50;99.90;;;;;;7343031;19;110111;-88
2022/01/31 13:12:01;;;;;;;37.80;5.33;;;7.50;99.90;;;;;;7339643;19;111446;-91
2022/01/31 13:14:31;;;;;;;40.27;6.87;;;7.60;99.90;;;;;;7342687;19;110004;-90
2022/01/31 13:17:16;;;;;;;58.00;6.27;;;7.50;99.90;;;;;;7339756;19;108606;-88
2022/01/31 13:19:52;;;;;;;43.70;6.15;;;7.50;99.90;;;;;;7348136;19;109164;-91